createdAt,value
2023-05-11T00:00:24.794Z,991.93
2023-05-11T00:01:24.777Z,991.93
2023-05-11T00:02:24.835Z,991.97
2023-05-11T00:03:24.868Z,991.94
2023-05-11T00:04:24.757Z,991.92
2023-05-11T00:05:24.725Z,991.91
2023-05-11T00:06:24.768Z,991.90
2023-05-11T00:07:24.690Z,991.95
2023-05-11T00:08:24.679Z,991.88
2023-05-11T00:09:24.658Z,991.90
2023-05-11T00:10:24.644Z,991.92
2023-05-11T00:11:24.632Z,991.90
2023-05-11T00:12:24.618Z,991.89
2023-05-11T00:13:24.603Z,991.89
2023-05-11T00:14:24.588Z,991.88
2023-05-11T00:15:24.597Z,991.89
2023-05-11T00:16:24.572Z,991.90
2023-05-11T00:17:24.574Z,991.91
2023-05-11T00:18:24.584Z,991.93
2023-05-11T00:19:24.507Z,991.95
2023-05-11T00:20:24.495Z,991.97
2023-05-11T00:21:24.480Z,991.93
2023-05-11T00:22:24.467Z,991.95
2023-05-11T00:23:24.460Z,991.90
2023-05-11T00:24:24.444Z,991.91
2023-05-11T00:25:24.423Z,991.90
2023-05-11T00:26:24.407Z,991.90
2023-05-11T00:27:24.402Z,991.88
2023-05-11T00:28:24.383Z,991.89
2023-05-11T00:29:24.360Z,991.90
2023-05-11T00:30:24.350Z,991.88
2023-05-11T00:31:24.407Z,991.87
2023-05-11T00:32:24.353Z,991.86
2023-05-11T00:33:24.298Z,991.88
2023-05-11T00:34:24.284Z,991.89
2023-05-11T00:35:24.276Z,991.89
2023-05-11T00:36:24.255Z,991.85
2023-05-11T00:37:25.930Z,991.90
2023-05-11T00:38:24.218Z,991.88
2023-05-11T00:39:24.214Z,991.89
2023-05-11T00:40:24.189Z,991.88
2023-05-11T00:41:24.177Z,991.87
2023-05-11T00:42:24.159Z,991.87
2023-05-11T00:43:24.143Z,991.83
2023-05-11T00:44:24.132Z,991.84
2023-05-11T00:45:24.116Z,991.83
2023-05-11T00:46:24.153Z,991.81
2023-05-11T00:47:24.117Z,991.81
2023-05-11T00:48:24.072Z,991.79
2023-05-11T00:49:24.061Z,991.78
2023-05-11T00:50:24.049Z,991.79
2023-05-11T00:51:24.027Z,991.77
2023-05-11T00:52:24.011Z,991.76
2023-05-11T00:53:23.994Z,991.77
2023-05-11T00:54:23.980Z,991.75
2023-05-11T00:55:23.966Z,991.73
2023-05-11T00:56:23.950Z,991.71
2023-05-11T00:57:23.940Z,991.69
2023-05-11T00:58:23.934Z,991.74
2023-05-11T00:59:23.904Z,991.73
2023-05-11T01:00:23.906Z,991.73
2023-05-11T01:01:24.022Z,991.77
2023-05-11T01:02:23.906Z,991.72
2023-05-11T01:03:23.893Z,991.71
2023-05-11T01:04:23.833Z,991.72
2023-05-11T01:05:23.816Z,991.70
2023-05-11T01:06:23.806Z,991.70
2023-05-11T01:07:23.790Z,991.71
2023-05-11T01:08:23.777Z,991.71
2023-05-11T01:09:23.759Z,991.79
2023-05-11T01:10:23.746Z,991.76
2023-05-11T01:11:23.755Z,991.73
2023-05-11T01:12:23.713Z,991.69
2023-05-11T01:13:23.705Z,991.68
2023-05-11T01:14:23.693Z,991.73
2023-05-11T01:15:23.668Z,991.72
2023-05-11T01:16:23.664Z,991.71
2023-05-11T01:17:23.641Z,991.75
2023-05-11T01:18:23.644Z,991.73
2023-05-11T01:19:23.608Z,991.70
2023-05-11T01:20:23.593Z,991.72
2023-05-11T01:21:23.583Z,991.71
2023-05-11T01:22:23.562Z,991.68
2023-05-11T01:23:23.553Z,991.72
2023-05-11T01:24:23.536Z,991.73
2023-05-11T01:25:23.535Z,991.72
2023-05-11T01:26:23.506Z,991.69
2023-05-11T01:27:23.489Z,991.71
2023-05-11T01:28:23.476Z,991.74
2023-05-11T01:29:23.458Z,991.71
2023-05-11T01:30:23.456Z,991.69
2023-05-11T01:31:23.451Z,991.74
2023-05-11T01:32:23.460Z,991.72
2023-05-11T01:33:23.404Z,991.73
2023-05-11T01:34:23.391Z,991.73
2023-05-11T01:35:23.374Z,991.73
2023-05-11T01:36:23.355Z,991.74
2023-05-11T01:37:23.340Z,991.78
2023-05-11T01:38:23.337Z,991.75
2023-05-11T01:39:23.311Z,991.72
2023-05-11T01:40:23.298Z,991.73
2023-05-11T01:41:23.285Z,991.74
2023-05-11T01:42:23.269Z,991.71
2023-05-11T01:43:23.246Z,991.70
2023-05-11T01:44:23.245Z,991.72
2023-05-11T01:45:23.217Z,991.77
2023-05-11T01:46:23.243Z,991.73
2023-05-11T01:47:23.189Z,991.74
2023-05-11T01:48:23.181Z,991.73
2023-05-11T01:49:23.157Z,991.72
2023-05-11T01:50:23.150Z,991.71
2023-05-11T01:51:23.125Z,991.74
2023-05-11T01:52:23.119Z,991.74
2023-05-11T01:53:23.109Z,991.74
2023-05-11T01:54:23.083Z,991.71
2023-05-11T01:55:23.067Z,991.73
2023-05-11T01:56:23.050Z,991.75
2023-05-11T01:57:23.036Z,991.73
2023-05-11T01:58:23.021Z,991.70
2023-05-11T01:59:23.004Z,991.73
2023-05-11T02:00:22.992Z,991.73
2023-05-11T02:01:23.033Z,991.71
2023-05-11T02:02:22.983Z,991.75
2023-05-11T02:03:23.003Z,991.71
2023-05-11T02:04:22.937Z,991.70
2023-05-11T02:05:22.912Z,991.72
2023-05-11T02:06:22.917Z,991.71
2023-05-11T02:07:22.888Z,991.73
2023-05-11T02:08:22.871Z,991.72
2023-05-11T02:09:22.854Z,991.73
2023-05-11T02:10:22.846Z,991.70
2023-05-11T02:11:22.844Z,991.75
2023-05-11T02:12:22.812Z,991.71
2023-05-11T02:13:22.807Z,991.76
2023-05-11T02:14:22.781Z,991.81
2023-05-11T02:15:22.769Z,991.72
2023-05-11T02:16:22.792Z,991.75
2023-05-11T02:17:22.745Z,991.73
2023-05-11T02:18:22.767Z,991.76
2023-05-11T02:19:22.705Z,991.71
2023-05-11T02:20:22.694Z,991.70
2023-05-11T02:21:22.679Z,991.73
2023-05-11T02:22:22.661Z,991.74
2023-05-11T02:23:22.644Z,991.77
2023-05-11T02:24:22.632Z,991.77
2023-05-11T02:25:22.616Z,991.74
2023-05-11T02:26:22.633Z,991.77
2023-05-11T02:27:22.585Z,991.78
2023-05-11T02:28:22.578Z,991.73
2023-05-11T02:29:22.563Z,991.76
2023-05-11T02:30:22.553Z,991.74
2023-05-11T02:31:22.554Z,991.81
2023-05-11T02:32:22.574Z,991.76
2023-05-11T02:33:22.505Z,991.77
2023-05-11T02:34:22.482Z,991.75
2023-05-11T02:35:22.467Z,991.74
2023-05-11T02:36:22.475Z,991.75
2023-05-11T02:37:22.437Z,991.71
2023-05-11T02:38:22.422Z,991.79
2023-05-11T02:39:22.406Z,991.72
2023-05-11T02:40:22.388Z,991.75
2023-05-11T02:41:22.374Z,991.74
2023-05-11T02:42:22.356Z,991.76
2023-05-11T02:43:22.340Z,991.74
2023-05-11T02:44:22.329Z,991.68
2023-05-11T02:45:22.311Z,991.68
2023-05-11T02:46:22.309Z,991.70
2023-05-11T02:47:22.299Z,991.70
2023-05-11T02:48:22.265Z,991.70
2023-05-11T02:49:22.261Z,991.67
2023-05-11T02:50:22.242Z,991.67
2023-05-11T02:51:22.238Z,991.68
2023-05-11T02:52:22.210Z,991.68
2023-05-11T02:53:22.192Z,991.68
2023-05-11T02:54:22.179Z,991.66
2023-05-11T02:55:22.166Z,991.70
2023-05-11T02:56:22.158Z,991.71
2023-05-11T02:57:22.129Z,991.73
2023-05-11T02:58:22.168Z,991.73
2023-05-11T02:59:22.099Z,991.73
2023-05-11T03:00:22.354Z,991.72
2023-05-11T03:01:22.181Z,991.71
2023-05-11T03:02:22.129Z,991.72
2023-05-11T03:03:22.114Z,991.73
2023-05-11T03:04:22.039Z,991.70
2023-05-11T03:05:22.008Z,991.68
2023-05-11T03:06:21.996Z,991.69
2023-05-11T03:07:21.985Z,991.72
2023-05-11T03:08:21.965Z,991.70
2023-05-11T03:09:21.953Z,991.67
2023-05-11T03:10:21.935Z,991.68
2023-05-11T03:11:21.916Z,991.69
2023-05-11T03:12:21.903Z,991.67
2023-05-11T03:13:21.885Z,991.69
2023-05-11T03:14:21.871Z,991.68
2023-05-11T03:15:21.860Z,991.68
2023-05-11T03:16:21.882Z,991.72
2023-05-11T03:17:21.847Z,991.73
2023-05-11T03:18:21.827Z,991.73
2023-05-11T03:19:21.803Z,991.72
2023-05-11T03:20:21.786Z,991.73
2023-05-11T03:21:21.763Z,991.74
2023-05-11T03:22:21.767Z,991.74
2023-05-11T03:23:21.741Z,991.75
2023-05-11T03:24:21.720Z,991.80
2023-05-11T03:25:21.708Z,991.77
2023-05-11T03:26:21.697Z,991.78
2023-05-11T03:27:21.680Z,991.77
2023-05-11T03:28:21.664Z,991.73
2023-05-11T03:29:21.650Z,991.75
2023-05-11T03:30:21.642Z,991.75
2023-05-11T03:31:21.626Z,991.74
2023-05-11T03:32:21.714Z,991.76
2023-05-11T03:33:21.583Z,991.75
2023-05-11T03:34:21.573Z,991.76
2023-05-11T03:35:21.552Z,991.71
2023-05-11T03:36:21.546Z,991.72
2023-05-11T03:37:21.522Z,991.74
2023-05-11T03:38:21.510Z,991.73
2023-05-11T03:39:21.493Z,991.73
2023-05-11T03:40:21.476Z,991.72
2023-05-11T03:41:21.494Z,991.74
2023-05-11T03:42:21.452Z,991.73
2023-05-11T03:43:21.432Z,991.72
2023-05-11T03:44:21.440Z,991.75
2023-05-11T03:45:21.413Z,991.76
2023-05-11T03:46:21.466Z,991.73
2023-05-11T03:47:21.448Z,991.75
2023-05-11T03:48:21.360Z,991.69
2023-05-11T03:49:21.340Z,991.66
2023-05-11T03:50:21.327Z,991.71
2023-05-11T03:51:21.311Z,991.67
2023-05-11T03:52:21.297Z,991.69
2023-05-11T03:53:21.281Z,991.72
2023-05-11T03:54:21.273Z,991.70
2023-05-11T03:55:21.247Z,991.71
2023-05-11T03:56:21.244Z,991.73
2023-05-11T03:57:21.219Z,991.70
2023-05-11T03:58:21.206Z,991.72
2023-05-11T03:59:21.184Z,991.68
2023-05-11T04:00:21.190Z,991.68
2023-05-11T04:01:21.159Z,991.69
2023-05-11T04:02:21.202Z,991.67
2023-05-11T04:03:21.353Z,991.70
2023-05-11T04:04:21.158Z,991.69
2023-05-11T04:05:21.100Z,991.71
2023-05-11T04:06:21.091Z,991.69
2023-05-11T04:07:21.094Z,991.70
2023-05-11T04:08:21.056Z,991.72
2023-05-11T04:09:21.174Z,991.68
2023-05-11T04:10:21.148Z,991.70
2023-05-11T04:11:21.014Z,991.64
2023-05-11T04:12:20.987Z,991.60
2023-05-11T04:13:20.973Z,991.61
2023-05-11T04:14:20.998Z,991.64
2023-05-11T04:15:20.942Z,991.63
2023-05-11T04:16:20.961Z,991.69
2023-05-11T04:17:20.908Z,991.72
2023-05-11T04:18:20.901Z,991.67
2023-05-11T04:19:20.877Z,991.72
2023-05-11T04:20:21.109Z,991.69
2023-05-11T04:21:20.857Z,991.69
2023-05-11T04:22:20.837Z,991.74
2023-05-11T04:23:20.833Z,991.71
2023-05-11T04:24:20.821Z,991.70
2023-05-11T04:25:20.790Z,991.72
2023-05-11T04:26:20.771Z,991.70
2023-05-11T04:27:20.762Z,991.70
2023-05-11T04:28:20.748Z,991.70
2023-05-11T04:29:20.741Z,991.73
2023-05-11T04:30:21.004Z,991.71
2023-05-11T04:31:20.775Z,991.74
2023-05-11T04:32:20.682Z,991.74
2023-05-11T04:33:20.675Z,991.79
2023-05-11T04:34:20.653Z,991.76
2023-05-11T04:35:20.648Z,991.81
2023-05-11T04:36:20.624Z,991.75
2023-05-11T04:37:20.611Z,991.76
2023-05-11T04:38:20.595Z,991.79
2023-05-11T04:39:20.590Z,991.78
2023-05-11T04:40:20.710Z,991.76
2023-05-11T04:41:20.546Z,991.78
2023-05-11T04:42:20.535Z,991.79
2023-05-11T04:43:20.523Z,991.81
2023-05-11T04:44:20.502Z,991.79
2023-05-11T04:45:20.509Z,991.81
2023-05-11T04:46:20.518Z,991.85
2023-05-11T04:47:20.511Z,991.83
2023-05-11T04:48:21.039Z,991.81
2023-05-11T04:49:20.451Z,991.85
2023-05-11T04:50:20.597Z,991.84
2023-05-11T04:51:20.402Z,991.85
2023-05-11T04:52:20.381Z,991.82
2023-05-11T04:53:20.389Z,991.85
2023-05-11T04:54:20.368Z,991.83
2023-05-11T04:55:20.338Z,991.79
2023-05-11T04:56:20.323Z,991.82
2023-05-11T04:57:20.310Z,991.84
2023-05-11T04:58:20.336Z,991.82
2023-05-11T04:59:20.287Z,991.82
2023-05-11T05:00:20.727Z,991.80
2023-05-11T05:01:20.320Z,991.82
2023-05-11T05:02:20.259Z,991.83
2023-05-11T05:03:20.259Z,991.84
2023-05-11T05:04:20.247Z,991.83
2023-05-11T05:05:20.190Z,991.87
2023-05-11T05:06:20.176Z,991.86
2023-05-11T05:07:20.165Z,991.86
2023-05-11T05:08:20.151Z,991.90
2023-05-11T05:09:20.143Z,991.88
2023-05-11T05:10:20.318Z,991.89
2023-05-11T05:11:20.110Z,991.88
2023-05-11T05:12:20.095Z,991.90
2023-05-11T05:13:20.089Z,991.88
2023-05-11T05:14:20.065Z,991.91
2023-05-11T05:15:20.056Z,991.92
2023-05-11T05:16:20.060Z,991.91
2023-05-11T05:17:20.044Z,991.94
2023-05-11T05:18:20.078Z,991.95
2023-05-11T05:19:20.002Z,991.93
2023-05-11T05:20:20.181Z,991.93
2023-05-11T05:21:19.966Z,991.94
2023-05-11T05:22:19.945Z,991.98
2023-05-11T05:23:19.932Z,991.98
2023-05-11T05:24:19.921Z,991.98
2023-05-11T05:25:19.947Z,991.98
2023-05-11T05:26:19.888Z,992.02
2023-05-11T05:27:19.889Z,991.99
2023-05-11T05:28:19.882Z,992.05
2023-05-11T05:29:19.867Z,992.02
2023-05-11T05:30:19.975Z,992.03
2023-05-11T05:31:19.861Z,992.03
2023-05-11T05:32:19.815Z,992.08
2023-05-11T05:33:19.796Z,992.03
2023-05-11T05:34:19.808Z,992.04
2023-05-11T05:35:19.765Z,992.04
2023-05-11T05:36:19.746Z,992.08
2023-05-11T05:37:19.748Z,992.07
2023-05-11T05:38:19.747Z,992.04
2023-05-11T05:39:19.706Z,992.07
2023-05-11T05:40:20.000Z,992.07
2023-05-11T05:41:19.676Z,992.10
2023-05-11T05:42:19.665Z,992.14
2023-05-11T05:43:19.682Z,992.13
2023-05-11T05:44:19.633Z,992.13
2023-05-11T05:45:19.620Z,992.15
2023-05-11T05:46:19.694Z,992.20
2023-05-11T05:47:19.646Z,992.19
2023-05-11T05:48:19.580Z,992.18
2023-05-11T05:49:19.561Z,992.21
2023-05-11T05:50:19.779Z,992.21
2023-05-11T05:51:19.532Z,992.21
2023-05-11T05:52:19.519Z,992.25
2023-05-11T05:53:19.513Z,992.19
2023-05-11T05:54:19.491Z,992.16
2023-05-11T05:55:19.476Z,992.18
2023-05-11T05:56:19.459Z,992.18
2023-05-11T05:57:19.447Z,992.23
2023-05-11T05:58:19.430Z,992.18
2023-05-11T05:59:19.426Z,992.22
2023-05-11T06:00:19.665Z,992.23
2023-05-11T06:01:19.387Z,992.25
2023-05-11T06:02:19.431Z,992.23
2023-05-11T06:03:19.426Z,992.27
2023-05-11T06:04:19.417Z,992.26
2023-05-11T06:05:19.341Z,992.27
2023-05-11T06:06:19.323Z,992.27
2023-05-11T06:07:19.316Z,992.30
2023-05-11T06:08:19.311Z,992.30
2023-05-11T06:09:19.279Z,992.26
2023-05-11T06:10:19.352Z,992.28
2023-05-11T06:11:19.246Z,992.30
2023-05-11T06:12:19.252Z,992.29
2023-05-11T06:13:19.224Z,992.27
2023-05-11T06:14:19.203Z,992.31
2023-05-11T06:15:19.190Z,992.30
2023-05-11T06:16:19.198Z,992.32
2023-05-11T06:17:19.176Z,992.35
2023-05-11T06:18:19.231Z,992.36
2023-05-11T06:19:19.142Z,992.34
2023-05-11T06:20:19.358Z,992.36
2023-05-11T06:21:19.112Z,992.38
2023-05-11T06:22:19.101Z,992.39
2023-05-11T06:23:19.086Z,992.38
2023-05-11T06:24:19.079Z,992.40
2023-05-11T06:25:19.056Z,992.41
2023-05-11T06:26:19.035Z,992.39
2023-05-11T06:27:19.026Z,992.39
2023-05-11T06:28:19.017Z,992.38
2023-05-11T06:29:19.016Z,992.38
2023-05-11T06:30:19.304Z,992.38
2023-05-11T06:31:19.033Z,992.37
2023-05-11T06:32:19.000Z,992.35
2023-05-11T06:33:18.942Z,992.33
2023-05-11T06:34:18.931Z,992.39
2023-05-11T06:35:18.922Z,992.37
2023-05-11T06:36:18.912Z,992.39
2023-05-11T06:37:18.917Z,992.38
2023-05-11T06:38:18.879Z,992.40
2023-05-11T06:39:18.863Z,992.42
2023-05-11T06:40:19.121Z,992.38
2023-05-11T06:41:18.838Z,992.35
2023-05-11T06:42:18.825Z,992.41
2023-05-11T06:43:18.811Z,992.40
2023-05-11T06:44:18.800Z,992.40
2023-05-11T06:45:18.806Z,992.35
2023-05-11T06:46:18.790Z,992.40
2023-05-11T06:47:18.753Z,992.39
2023-05-11T06:48:18.741Z,992.35
2023-05-11T06:49:18.743Z,992.39
2023-05-11T06:50:21.187Z,992.37
2023-05-11T06:51:18.699Z,992.38
2023-05-11T06:52:18.689Z,992.44
2023-05-11T06:53:18.676Z,992.40
2023-05-11T06:54:18.687Z,992.41
2023-05-11T06:55:18.646Z,992.39
2023-05-11T06:56:18.639Z,992.38
2023-05-11T06:57:18.625Z,992.40
2023-05-11T06:58:18.628Z,992.36
2023-05-11T06:59:18.595Z,992.36
2023-05-11T07:00:18.764Z,992.38
2023-05-11T07:01:18.614Z,992.37
2023-05-11T07:02:18.562Z,992.38
2023-05-11T07:03:18.557Z,992.36
2023-05-11T07:04:18.602Z,992.34
2023-05-11T07:05:18.532Z,992.35
2023-05-11T07:06:18.499Z,992.36
2023-05-11T07:07:18.489Z,992.36
2023-05-11T07:08:18.474Z,992.39
2023-05-11T07:09:18.640Z,992.39
2023-05-11T07:10:18.748Z,992.40
2023-05-11T07:11:18.435Z,992.39
2023-05-11T07:12:18.424Z,992.40
2023-05-11T07:13:18.424Z,992.41
2023-05-11T07:14:18.400Z,992.43
2023-05-11T07:15:18.384Z,992.41
2023-05-11T07:16:18.410Z,992.45
2023-05-11T07:17:18.354Z,992.41
2023-05-11T07:18:18.375Z,992.42
2023-05-11T07:19:18.335Z,992.44
2023-05-11T07:20:18.534Z,992.42
2023-05-11T07:21:18.308Z,992.45
2023-05-11T07:22:18.303Z,992.44
2023-05-11T07:23:18.276Z,992.44
2023-05-11T07:24:18.271Z,992.49
2023-05-11T07:25:18.257Z,992.47
2023-05-11T07:26:18.261Z,992.47
2023-05-11T07:27:18.229Z,992.49
2023-05-11T07:28:18.229Z,992.53
2023-05-11T07:29:18.199Z,992.53
2023-05-11T07:30:18.916Z,992.52
2023-05-11T07:31:18.194Z,992.51
2023-05-11T07:32:18.170Z,992.51
2023-05-11T07:33:18.160Z,992.53
2023-05-11T07:34:18.138Z,992.51
2023-05-11T07:35:18.124Z,992.53
2023-05-11T07:36:18.111Z,992.52
2023-05-11T07:37:18.093Z,992.51
2023-05-11T07:38:18.082Z,992.56
2023-05-11T07:39:18.076Z,992.54
2023-05-11T07:40:18.275Z,992.54
2023-05-11T07:41:18.054Z,992.51
2023-05-11T07:42:18.033Z,992.49
2023-05-11T07:43:18.023Z,992.50
2023-05-11T07:44:18.026Z,992.53
2023-05-11T07:45:18.000Z,992.52
2023-05-11T07:46:18.095Z,992.51
2023-05-11T07:47:17.983Z,992.51
2023-05-11T07:48:17.959Z,992.54
2023-05-11T07:49:22.962Z,992.52
2023-05-11T07:50:18.161Z,992.55
2023-05-11T07:51:17.919Z,992.58
2023-05-11T07:52:17.911Z,992.55
2023-05-11T07:53:17.895Z,992.54
2023-05-11T07:54:19.471Z,992.52
2023-05-11T07:55:18.003Z,992.57
2023-05-11T07:56:17.857Z,992.54
2023-05-11T07:57:17.845Z,992.56
2023-05-11T07:58:17.833Z,992.52
2023-05-11T07:59:17.829Z,992.53
2023-05-11T08:00:17.951Z,992.51
2023-05-11T08:01:17.812Z,992.49
2023-05-11T08:02:17.861Z,992.50
2023-05-11T08:03:17.811Z,992.53
2023-05-11T08:04:17.766Z,992.49
2023-05-11T08:05:17.985Z,992.51
2023-05-11T08:06:17.835Z,992.52
2023-05-11T08:07:17.742Z,992.50
2023-05-11T08:08:17.710Z,992.49
2023-05-11T08:09:17.706Z,992.51
2023-05-11T08:10:17.694Z,992.54
2023-05-11T08:11:17.673Z,992.50
2023-05-11T08:12:17.682Z,992.54
2023-05-11T08:13:17.650Z,992.49
2023-05-11T08:14:17.661Z,992.55
2023-05-11T08:15:17.852Z,992.55
2023-05-11T08:16:17.635Z,992.51
2023-05-11T08:17:17.635Z,992.56
2023-05-11T08:18:17.652Z,992.50
2023-05-11T08:19:17.581Z,992.50
2023-05-11T08:20:17.566Z,992.49
2023-05-11T08:21:17.589Z,992.51
2023-05-11T08:22:17.544Z,992.49
2023-05-11T08:23:17.537Z,992.53
2023-05-11T08:24:17.518Z,992.49
2023-05-11T08:25:17.737Z,992.50
2023-05-11T08:26:17.507Z,992.53
2023-05-11T08:27:17.496Z,992.57
2023-05-11T08:28:17.481Z,992.56
2023-05-11T08:29:17.464Z,992.57
2023-05-11T08:30:17.472Z,992.55
2023-05-11T08:31:17.474Z,992.58
2023-05-11T08:32:17.473Z,992.60
2023-05-11T08:33:35.948Z,992.59
2023-05-11T08:34:19.856Z,992.56
2023-05-11T08:35:17.793Z,992.57
2023-05-11T08:36:17.381Z,992.60
2023-05-11T08:37:17.370Z,992.56
2023-05-11T08:38:17.358Z,992.58
2023-05-11T08:39:28.552Z,992.59
2023-05-11T08:40:17.340Z,992.53
2023-05-11T08:41:17.321Z,992.55
2023-05-11T08:42:17.369Z,992.54
2023-05-11T08:43:17.300Z,992.56
2023-05-11T08:44:17.292Z,992.59
2023-05-11T08:45:17.443Z,992.57
2023-05-11T08:46:17.317Z,992.57
2023-05-11T08:47:23.242Z,992.61
2023-05-11T08:48:17.248Z,992.63
2023-05-11T08:49:17.235Z,992.62
2023-05-11T08:50:17.232Z,992.66
2023-05-11T08:51:17.212Z,992.63
2023-05-11T08:52:17.206Z,992.64
2023-05-11T08:53:17.188Z,992.62
2023-05-11T08:54:17.176Z,992.62
2023-05-11T08:55:17.454Z,992.64
2023-05-11T08:56:17.169Z,992.66
2023-05-11T08:57:17.145Z,992.68
2023-05-11T08:58:17.140Z,992.62
2023-05-11T08:59:17.123Z,992.66
2023-05-11T09:00:17.120Z,992.66
2023-05-11T09:01:17.128Z,992.66
2023-05-11T09:02:17.275Z,992.66
2023-05-11T09:03:17.079Z,992.65
2023-05-11T09:04:17.077Z,992.68
2023-05-11T09:05:17.279Z,992.64
2023-05-11T09:06:17.071Z,992.68
2023-05-11T09:07:17.047Z,992.72
2023-05-11T09:08:17.034Z,992.65
2023-05-11T09:09:17.021Z,992.69
2023-05-11T09:10:17.012Z,992.66
2023-05-11T09:11:17.003Z,992.66
2023-05-11T09:12:17.040Z,992.65
2023-05-11T09:13:16.977Z,992.66
2023-05-11T09:14:16.972Z,992.64
2023-05-11T09:15:16.980Z,992.63
2023-05-11T09:16:28.910Z,992.60
2023-05-11T09:17:16.934Z,992.61
2023-05-11T09:18:16.939Z,992.63
2023-05-11T09:19:16.929Z,992.67
2023-05-11T09:20:17.100Z,992.67
2023-05-11T09:21:16.898Z,992.65
2023-05-11T09:22:16.885Z,992.64
2023-05-11T09:23:16.877Z,992.65
2023-05-11T09:24:16.868Z,992.70
2023-05-11T09:25:17.057Z,992.68
2023-05-11T09:26:16.842Z,992.62
2023-05-11T09:27:21.186Z,992.59
2023-05-11T09:28:17.150Z,992.62
2023-05-11T09:29:16.812Z,992.63
2023-05-11T09:30:22.125Z,992.67
2023-05-11T09:31:16.830Z,992.66
2023-05-11T09:32:16.781Z,992.60
2023-05-11T09:33:16.770Z,992.65
2023-05-11T09:34:16.767Z,992.66
2023-05-11T09:35:16.914Z,992.66
2023-05-11T09:36:16.740Z,992.63
2023-05-11T09:37:16.736Z,992.64
2023-05-11T09:38:16.723Z,992.69
2023-05-11T09:39:17.072Z,992.66
2023-05-11T09:40:26.896Z,992.62
2023-05-11T09:41:16.689Z,992.62
2023-05-11T09:42:16.709Z,992.71
2023-05-11T09:43:16.681Z,992.66
2023-05-11T09:44:16.663Z,992.66
2023-05-11T09:45:16.920Z,992.63
2023-05-11T09:46:16.678Z,992.64
2023-05-11T09:47:16.642Z,992.65
2023-05-11T09:48:16.697Z,992.64
2023-05-11T09:49:16.605Z,992.69
2023-05-11T09:50:16.651Z,992.67
2023-05-11T09:51:16.580Z,992.64
2023-05-11T09:52:16.580Z,992.64
2023-05-11T09:53:16.561Z,992.63
2023-05-11T09:54:16.561Z,992.63
2023-05-11T09:55:16.825Z,992.66
2023-05-11T09:56:16.532Z,992.61
2023-05-11T09:57:16.521Z,992.62
2023-05-11T09:58:16.508Z,992.66
2023-05-11T09:59:16.495Z,992.64
2023-05-11T10:00:16.521Z,992.62
2023-05-11T10:01:16.534Z,992.67
2023-05-11T10:02:16.503Z,992.66
2023-05-11T10:03:16.513Z,992.63
2023-05-11T10:04:23.776Z,992.61
2023-05-11T10:05:16.553Z,992.60
2023-05-11T10:06:17.522Z,992.62
2023-05-11T10:07:16.416Z,992.59
2023-05-11T10:08:16.408Z,992.60
2023-05-11T10:09:16.398Z,992.61
2023-05-11T10:10:16.414Z,992.64
2023-05-11T10:11:16.387Z,992.63
2023-05-11T10:12:16.373Z,992.58
2023-05-11T10:13:16.356Z,992.62
2023-05-11T10:14:16.370Z,992.63
2023-05-11T10:15:16.474Z,992.59
2023-05-11T10:16:16.382Z,992.62
2023-05-11T10:17:16.312Z,992.59
2023-05-11T10:18:18.799Z,992.58
2023-05-11T10:19:16.319Z,992.62
2023-05-11T10:20:16.306Z,992.61
2023-05-11T10:21:16.294Z,992.62
2023-05-11T10:22:16.327Z,992.61
2023-05-11T10:23:16.262Z,992.59
2023-05-11T10:24:17.743Z,992.62
2023-05-11T10:25:16.238Z,992.63
2023-05-11T10:26:16.238Z,992.61
2023-05-11T10:27:16.227Z,992.57
2023-05-11T10:28:16.218Z,992.57
2023-05-11T10:29:16.194Z,992.57
2023-05-11T10:30:16.416Z,992.56
2023-05-11T10:31:16.194Z,992.54
2023-05-11T10:32:16.175Z,992.53
2023-05-11T10:33:16.172Z,992.53
2023-05-11T10:34:16.197Z,992.53
2023-05-11T10:35:16.145Z,992.53
2023-05-11T10:36:19.236Z,992.49
2023-05-11T10:37:16.124Z,992.51
2023-05-11T10:38:16.118Z,992.50
2023-05-11T10:39:16.095Z,992.48
2023-05-11T10:40:16.088Z,992.49
2023-05-11T10:41:16.085Z,992.47
2023-05-11T10:42:16.070Z,992.47
2023-05-11T10:43:16.065Z,992.49
2023-05-11T10:44:16.093Z,992.50
2023-05-11T10:45:16.048Z,992.51
2023-05-11T10:46:16.062Z,992.49
2023-05-11T10:47:16.045Z,992.46
2023-05-11T10:48:16.005Z,992.45
2023-05-11T10:49:15.986Z,992.49
2023-05-11T10:50:16.098Z,992.45
2023-05-11T10:51:15.974Z,992.44
2023-05-11T10:52:15.956Z,992.44
2023-05-11T10:53:15.984Z,992.47
2023-05-11T10:54:15.995Z,992.43
2023-05-11T10:55:16.163Z,992.40
2023-05-11T10:56:15.912Z,992.44
2023-05-11T10:57:15.898Z,992.40
2023-05-11T10:58:15.886Z,992.45
2023-05-11T10:59:15.876Z,992.39
2023-05-11T11:05:33.351Z,992.43
2023-05-11T11:06:33.313Z,992.37
2023-05-11T11:08:27.957Z,992.40
2023-05-11T11:09:27.926Z,992.41
2023-05-11T11:11:33.650Z,992.40
2023-05-11T11:12:33.621Z,992.43
2023-05-11T11:13:33.612Z,992.43
2023-05-11T11:14:33.616Z,992.43
2023-05-11T11:15:33.617Z,992.42
2023-05-11T11:16:33.600Z,992.43
2023-05-11T11:17:33.633Z,992.40
2023-05-11T11:18:33.650Z,992.40
2023-05-11T11:19:42.264Z,992.45
2023-05-11T13:37:39.932Z,991.89
2023-05-11T13:38:39.607Z,991.90
2023-05-11T13:39:39.582Z,991.92
2023-05-11T13:40:39.578Z,991.91
2023-05-11T13:41:39.570Z,991.87
2023-05-11T13:42:39.555Z,991.90
2023-05-11T13:43:39.548Z,991.88
2023-05-11T13:44:39.522Z,991.90
2023-05-11T13:45:39.515Z,991.88
2023-05-11T13:46:39.535Z,991.90
2023-05-11T13:47:39.499Z,991.89
2023-05-11T13:48:39.475Z,991.88
2023-05-11T13:49:39.468Z,991.86
2023-05-11T13:50:39.455Z,991.87
2023-05-11T13:51:39.457Z,991.86
2023-05-11T13:52:39.429Z,991.87
2023-05-11T13:53:39.431Z,991.86
2023-05-11T13:54:39.416Z,991.89
2023-05-11T13:55:39.439Z,991.87
2023-05-11T13:56:39.397Z,991.83
2023-05-11T13:57:39.424Z,991.84
2023-05-11T13:58:39.379Z,991.81
2023-05-11T13:59:39.348Z,991.82
2023-05-11T14:00:39.408Z,991.81
2023-05-11T14:01:39.349Z,991.80
2023-05-11T14:02:39.412Z,991.76
2023-05-11T14:03:39.327Z,991.79
2023-05-11T14:04:39.295Z,991.75
2023-05-11T14:05:39.493Z,991.75
2023-05-11T14:06:39.270Z,991.75
2023-05-11T14:07:46.251Z,991.75
2023-05-11T14:08:39.284Z,991.70
2023-05-11T14:09:39.236Z,991.69
2023-05-11T14:10:39.219Z,991.75
2023-05-11T14:11:39.601Z,991.76
2023-05-11T14:12:39.202Z,991.71
2023-05-11T14:13:39.186Z,991.76
2023-05-11T14:14:39.178Z,991.75
2023-05-11T14:15:39.166Z,991.71
2023-05-11T14:16:39.158Z,991.68
2023-05-11T14:17:39.201Z,991.75
2023-05-11T14:18:39.268Z,991.73
2023-05-11T14:19:39.197Z,991.68
2023-05-11T14:20:39.113Z,991.69
2023-05-11T14:21:39.093Z,991.75
2023-05-11T14:22:39.138Z,991.72
2023-05-11T14:23:41.717Z,991.71
2023-05-11T14:24:39.072Z,991.73
2023-05-11T14:25:39.056Z,991.73
2023-05-11T14:26:39.047Z,991.73
2023-05-11T14:27:39.032Z,991.74
2023-05-11T14:28:39.017Z,991.74
2023-05-11T14:29:41.678Z,991.75
2023-05-11T14:30:39.021Z,991.71
2023-05-11T14:31:38.978Z,991.72
2023-05-11T14:32:39.017Z,991.68
2023-05-11T14:33:38.970Z,991.72
2023-05-11T14:34:38.946Z,991.69
2023-05-11T14:35:39.938Z,991.70
2023-05-11T14:36:38.939Z,991.69
2023-05-11T14:37:38.910Z,991.69
2023-05-11T14:38:38.907Z,991.67
2023-05-11T14:39:38.898Z,991.65
2023-05-11T14:40:38.878Z,991.63
2023-05-11T14:41:38.902Z,991.65
2023-05-11T14:42:38.853Z,991.66
2023-05-11T14:43:38.852Z,991.62
2023-05-11T14:44:38.826Z,991.61
2023-05-11T14:45:38.814Z,991.60
2023-05-11T14:46:38.902Z,991.61
2023-05-11T14:47:38.846Z,991.60
2023-05-11T14:48:38.793Z,991.56
2023-05-11T14:49:38.775Z,991.58
2023-05-11T14:50:38.754Z,991.59
2023-05-11T14:51:39.654Z,991.55
2023-05-11T14:52:38.735Z,991.60